Time;durP1;ratioP1;P1;durP2;ratioP2;P2;SDS_P1;SDS_P2;PMS_P1;PMS_P2;Temp;Humidity;BMP_temperature;BMP_pressure;BME280_temperature;BME280_humidity;BME280_pressure;Samples;Min_cycle;Max_cycle;Signal;HPM_P1;HPM_P2
2022/03/19 00:02:59;;;;;;;48.63;40.13;;;10.30;28.50;;;;;;10306625;28;20242;-74
2022/03/19 00:08:02;;;;;;;45.33;39.97;;;10.30;28.50;;;;;;10299011;28;20236;-74
2022/03/19 00:13:05;;;;;;;44.13;39.03;;;10.20;28.50;;;;;;10304332;28;20616;-73
2022/03/19 00:18:10;;;;;;;43.53;38.77;;;10.10;28.70;;;;;;10300636;28;21061;-74
2022/03/19 00:23:15;;;;;;;42.27;36.67;;;10.10;28.90;;;;;;10296359;28;20242;-74
2022/03/19 00:28:19;;;;;;;41.23;35.50;;;10.00;28.60;;;;;;10295150;28;20231;-73
2022/03/19 00:33:23;;;;;;;37.00;31.50;;;10.00;28.60;;;;;;10299766;28;20281;-73
2022/03/19 00:38:26;;;;;;;37.90;33.77;;;9.90;29.40;;;;;;10297436;28;20235;-74
2022/03/19 00:43:30;;;;;;;38.20;31.47;;;9.90;29.20;;;;;;10299718;28;20243;-74
2022/03/19 00:48:34;;;;;;;37.63;32.10;;;9.90;29.30;;;;;;10298473;28;20228;-74
2022/03/19 00:53:38;;;;;;;35.00;30.23;;;9.80;29.10;;;;;;10302385;28;20782;-74
2022/03/19 00:58:41;;;;;;;31.77;27.40;;;9.70;28.90;;;;;;10300484;28;20234;-74
2022/03/19 01:03:46;;;;;;;34.07;29.53;;;9.60;28.80;;;;;;10299871;28;20317;-74
2022/03/19 01:08:49;;;;;;;32.00;28.60;;;9.60;29.20;;;;;;10304354;28;20243;-74
2022/03/19 01:13:54;;;;;;;32.53;28.93;;;9.50;29.20;;;;;;10309164;28;20239;-74
2022/03/19 01:18:58;;;;;;;32.53;29.03;;;9.50;29.20;;;;;;10306193;28;21204;-74
2022/03/19 01:24:01;;;;;;;30.73;27.37;;;9.40;29.10;;;;;;10306929;28;20240;-77
2022/03/19 01:29:05;;;;;;;31.40;27.90;;;9.30;29.00;;;;;;10308213;28;20231;-74
2022/03/19 01:34:09;;;;;;;29.83;26.70;;;9.30;29.10;;;;;;10304177;28;20236;-73
2022/03/19 01:39:12;;;;;;;29.63;26.33;;;9.20;29.30;;;;;;10305329;28;20236;-73
2022/03/19 01:44:19;;;;;;;28.83;25.83;;;9.10;29.20;;;;;;10306190;28;20235;-74
2022/03/19 01:49:24;;;;;;;30.77;24.63;;;9.10;29.50;;;;;;10303777;28;20232;-74
2022/03/19 01:54:30;;;;;;;29.50;25.97;;;9.00;29.50;;;;;;10307580;28;20589;-74
2022/03/19 01:59:35;;;;;;;29.10;26.00;;;9.00;29.40;;;;;;10305073;28;20613;-73
2022/03/19 02:04:41;;;;;;;28.07;25.07;;;9.00;29.40;;;;;;10306292;28;20715;-74
2022/03/19 02:09:44;;;;;;;27.73;24.17;;;8.90;29.40;;;;;;10303687;28;20227;-76
2022/03/19 02:14:48;;;;;;;27.57;24.73;;;8.90;29.20;;;;;;10307401;28;20725;-73
2022/03/19 02:19:54;;;;;;;26.53;23.63;;;8.80;29.10;;;;;;10306367;28;20245;-74
2022/03/19 02:30:19;;;;;;;26.23;23.17;;;8.70;29.20;;;;;;10302050;28;20738;-73
2022/03/19 02:35:23;;;;;;;25.47;22.77;;;8.60;29.20;;;;;;10301911;28;20246;-74
2022/03/19 02:40:27;;;;;;;25.73;23.17;;;8.50;29.20;;;;;;10303548;28;20236;-74
2022/03/19 02:45:31;;;;;;;26.57;23.77;;;8.40;29.30;;;;;;10301004;28;20250;-74
2022/03/19 02:50:35;;;;;;;26.93;24.03;;;8.40;29.30;;;;;;10307792;28;20230;-73
2022/03/19 02:55:42;;;;;;;26.33;23.40;;;8.30;29.30;;;;;;10303663;28;20322;-74
2022/03/19 03:00:45;;;;;;;26.20;22.93;;;8.30;29.30;;;;;;10302096;28;20246;-74
2022/03/19 03:05:49;;;;;;;25.40;22.83;;;8.20;29.10;;;;;;10308869;28;20243;-74
2022/03/19 03:10:54;;;;;;;26.20;23.40;;;8.20;29.30;;;;;;10305925;28;20246;-74
2022/03/19 03:15:58;;;;;;;23.30;20.83;;;8.10;29.30;;;;;;10303125;28;20243;-73
2022/03/19 03:21:01;;;;;;;25.33;22.77;;;8.00;29.30;;;;;;10306858;28;20762;-74
2022/03/19 03:26:06;;;;;;;25.00;22.30;;;7.90;29.30;;;;;;10305411;28;20238;-73
2022/03/19 03:31:09;;;;;;;23.40;20.87;;;7.90;29.40;;;;;;10300786;28;20238;-74
2022/03/19 03:36:13;;;;;;;25.27;22.50;;;7.90;29.50;;;;;;10305266;28;20250;-74
2022/03/19 03:41:18;;;;;;;24.23;21.70;;;7.80;29.40;;;;;;10300466;28;20240;-74
2022/03/19 03:46:21;;;;;;;24.57;21.97;;;7.80;29.40;;;;;;10297798;28;20235;-74
2022/03/19 03:51:24;;;;;;;23.57;21.10;;;7.70;29.30;;;;;;10301710;28;20238;-74
2022/03/19 03:56:29;;;;;;;24.90;21.73;;;7.70;29.30;;;;;;10302445;28;20754;-74
2022/03/19 04:01:32;;;;;;;23.70;21.20;;;7.60;29.30;;;;;;10305284;28;20224;-73
2022/03/19 04:06:36;;;;;;;24.63;21.93;;;7.50;29.20;;;;;;10304444;28;20243;-73
2022/03/19 04:11:40;;;;;;;22.93;20.47;;;7.40;29.20;;;;;;10297807;28;20235;-74
2022/03/19 04:16:43;;;;;;;22.17;19.77;;;7.30;29.30;;;;;;10304578;28;21023;-74
2022/03/19 04:21:47;;;;;;;19.33;17.23;;;7.30;29.40;;;;;;10300983;28;20234;-73
2022/03/19 04:26:51;;;;;;;19.40;17.40;;;7.20;29.30;;;;;;10295620;28;20306;-74
2022/03/19 04:31:55;;;;;;;21.53;19.37;;;7.20;29.50;;;;;;10301096;28;20254;-74
2022/03/19 04:36:58;;;;;;;23.20;20.73;;;7.10;29.40;;;;;;10302320;28;20235;-71
2022/03/19 04:42:03;;;;;;;21.90;19.57;;;7.10;29.50;;;;;;10305017;28;20601;-73
2022/03/19 04:47:07;;;;;;;22.77;20.37;;;7.00;29.70;;;;;;10298965;28;20230;-74
2022/03/19 04:52:10;;;;;;;23.77;20.93;;;7.00;29.70;;;;;;10297535;28;20239;-73
2022/03/19 04:57:14;;;;;;;20.10;18.00;;;7.00;29.70;;;;;;10302250;28;20240;-74
2022/03/19 05:02:18;;;;;;;21.67;19.47;;;6.90;29.70;;;;;;10296073;28;20231;-74
2022/03/19 05:07:21;;;;;;;20.73;18.20;;;6.90;29.80;;;;;;10301493;28;20329;-74
2022/03/19 05:12:33;;;;;;;18.53;16.63;;;6.90;29.80;;;;;;10299835;28;20254;-74
2022/03/19 05:17:36;;;;;;;22.27;19.60;;;6.90;30.00;;;;;;10296636;28;20780;-74
2022/03/19 05:22:40;;;;;;;21.80;19.43;;;6.90;29.70;;;;;;10303774;28;20239;-74
2022/03/19 05:27:44;;;;;;;22.70;20.10;;;6.80;29.80;;;;;;10301782;28;20342;-73
2022/03/19 05:32:56;;;;;;;22.83;18.87;;;6.80;29.80;;;;;;10305868;28;20238;-73
2022/03/19 05:38:00;;;;;;;22.03;19.70;;;6.80;29.80;;;;;;10301412;28;20748;-74
2022/03/19 05:43:04;;;;;;;20.27;18.17;;;6.80;29.90;;;;;;10304777;28;20235;-74
2022/03/19 05:48:07;;;;;;;24.07;20.83;;;6.80;30.00;;;;;;10303071;28;20231;-73
2022/03/19 05:53:11;;;;;;;24.53;22.03;;;6.80;30.00;;;;;;10311783;28;20242;-74
2022/03/19 05:58:15;;;;;;;25.33;22.67;;;6.70;29.90;;;;;;10312796;28;20238;-72
2022/03/19 06:03:18;;;;;;;24.13;21.53;;;6.70;30.00;;;;;;10317257;28;20242;-73
2022/03/19 06:08:21;;;;;;;26.00;23.20;;;6.70;30.00;;;;;;10319451;28;20238;-74
2022/03/19 06:13:26;;;;;;;24.27;21.67;;;6.60;30.00;;;;;;10312239;28;20239;-73
2022/03/19 06:18:29;;;;;;;23.83;20.93;;;6.60;30.40;;;;;;10312452;28;20230;-73
2022/03/19 06:23:33;;;;;;;24.53;21.87;;;6.60;30.30;;;;;;10321787;28;20238;-73
2022/03/19 06:28:37;;;;;;;24.93;22.30;;;6.60;30.50;;;;;;10318565;28;20258;-74
2022/03/19 06:33:41;;;;;;;25.03;22.43;;;6.60;30.70;;;;;;10319395;28;20242;-73
2022/03/19 06:38:45;;;;;;;25.57;21.47;;;6.60;30.60;;;;;;10323877;28;20755;-72
2022/03/19 06:43:50;;;;;;;25.50;22.70;;;6.60;30.80;;;;;;10316269;28;20230;-73
2022/03/19 06:48:53;;;;;;;25.93;23.13;;;6.70;31.10;;;;;;10316876;28;20880;-73
2022/03/19 06:53:56;;;;;;;26.90;23.47;;;6.70;31.10;;;;;;10312174;28;20596;-74
2022/03/19 06:59:01;;;;;;;25.50;22.73;;;6.80;31.30;;;;;;10323610;28;20227;-72
2022/03/19 07:04:04;;;;;;;27.20;23.47;;;6.90;31.60;;;;;;10320648;28;20238;-73
2022/03/19 07:09:08;;;;;;;25.87;22.30;;;6.90;31.40;;;;;;10315626;28;20230;-74
2022/03/19 07:14:12;;;;;;;27.77;22.70;;;7.00;31.60;;;;;;10318594;28;20241;-74
2022/03/19 07:19:15;;;;;;;25.80;22.83;;;7.10;31.80;;;;;;10308670;28;20219;-75
2022/03/19 07:24:19;;;;;;;25.67;22.03;;;7.20;31.70;;;;;;10316286;28;21057;-73
2022/03/19 07:29:24;;;;;;;26.00;22.87;;;7.30;31.70;;;;;;10318398;28;20931;-74
2022/03/19 07:34:27;;;;;;;25.90;22.40;;;7.40;31.80;;;;;;10319229;28;20587;-73
2022/03/19 07:39:30;;;;;;;26.23;21.73;;;7.50;31.70;;;;;;10314444;28;20704;-74
2022/03/19 07:44:34;;;;;;;24.47;21.70;;;7.60;31.60;;;;;;10314069;28;20245;-73
2022/03/19 07:49:39;;;;;;;24.77;20.80;;;7.70;31.60;;;;;;10310978;28;20581;-74
2022/03/19 07:54:42;;;;;;;22.70;20.27;;;7.90;31.50;;;;;;10310878;28;20238;-74
2022/03/19 07:59:47;;;;;;;24.23;20.17;;;8.00;31.60;;;;;;10314407;28;20277;-74
2022/03/19 08:04:50;;;;;;;24.07;20.33;;;8.20;31.30;;;;;;10313101;28;20268;-73
2022/03/19 08:09:53;;;;;;;22.47;20.07;;;8.40;31.10;;;;;;10309349;28;20712;-73
2022/03/19 08:14:59;;;;;;;22.03;19.67;;;8.60;30.90;;;;;;10310012;28;20255;-73
2022/03/19 08:20:02;;;;;;;22.03;18.80;;;8.80;30.80;;;;;;10299891;28;20817;-76
2022/03/19 08:25:07;;;;;;;21.47;19.10;;;9.00;30.60;;;;;;10316331;28;20741;-74
2022/03/19 08:30:13;;;;;;;21.97;18.47;;;9.20;30.80;;;;;;10305092;28;20231;-74
2022/03/19 08:35:16;;;;;;;21.27;18.97;;;9.40;30.30;;;;;;10313797;28;20243;-74
2022/03/19 08:40:21;;;;;;;23.20;19.27;;;9.60;30.10;;;;;;10311872;28;20332;-74
2022/03/19 08:45:26;;;;;;;20.70;17.97;;;9.90;29.90;;;;;;10309478;28;20242;-74
2022/03/19 08:50:29;;;;;;;20.77;18.67;;;10.10;28.80;;;;;;10307810;28;20222;-74
2022/03/19 08:55:32;;;;;;;20.87;17.83;;;10.30;28.60;;;;;;10306488;28;20227;-76
2022/03/19 09:00:40;;;;;;;20.07;17.43;;;10.50;28.70;;;;;;10312037;28;20768;-73
2022/03/19 09:05:43;;;;;;;20.73;17.87;;;10.60;28.40;;;;;;10311439;28;20231;-74
2022/03/19 09:10:46;;;;;;;20.03;17.83;;;10.80;28.50;;;;;;10304197;28;20234;-73
2022/03/19 09:15:51;;;;;;;18.03;16.13;;;11.00;28.20;;;;;;10309506;28;20235;-76
2022/03/19 09:20:54;;;;;;;17.67;15.77;;;11.20;28.70;;;;;;10310239;28;20226;-73
2022/03/19 09:25:57;;;;;;;19.00;16.40;;;11.40;28.30;;;;;;10306403;28;20243;-74
2022/03/19 09:31:01;;;;;;;18.70;16.43;;;11.60;28.00;;;;;;10315136;28;20235;-74
2022/03/19 09:36:05;;;;;;;17.13;15.33;;;11.80;27.40;;;;;;10311944;28;20708;-74
2022/03/19 09:41:09;;;;;;;17.13;15.33;;;12.00;27.20;;;;;;10313386;28;20346;-73
2022/03/19 09:46:14;;;;;;;17.03;15.23;;;12.10;26.80;;;;;;10310858;28;20246;-74
2022/03/19 09:51:18;;;;;;;16.87;15.10;;;12.20;26.60;;;;;;10315189;28;20236;-74
2022/03/19 09:56:21;;;;;;;16.67;14.87;;;12.30;26.60;;;;;;10318586;28;20238;-74
2022/03/19 10:01:26;;;;;;;15.33;13.73;;;12.40;26.60;;;;;;10313718;28;20794;-74
2022/03/19 10:11:51;;;;;;;15.60;13.60;;;12.70;26.40;;;;;;10317976;28;20231;-74
2022/03/19 10:16:57;;;;;;;16.53;14.30;;;12.80;26.00;;;;;;10318090;28;20318;-73
2022/03/19 10:22:08;;;;;;;15.70;13.33;;;12.80;25.30;;;;;;10318235;28;20302;-73
2022/03/19 10:27:19;;;;;;;15.10;13.60;;;12.90;24.30;;;;;;10318818;28;20248;-74
2022/03/19 10:32:28;;;;;;;20.47;14.70;;;13.00;24.40;;;;;;10309448;28;20231;-74
2022/03/19 10:37:37;;;;;;;14.60;13.10;;;13.00;23.80;;;;;;10323392;28;20713;-74
2022/03/19 10:42:42;;;;;;;14.77;13.23;;;13.00;24.40;;;;;;10321312;28;20703;-74
2022/03/19 10:47:48;;;;;;;15.33;13.70;;;13.10;24.70;;;;;;10313868;28;20230;-74
2022/03/19 10:52:53;;;;;;;15.70;13.93;;;13.20;24.30;;;;;;10316960;28;20297;-74
2022/03/19 10:57:56;;;;;;;16.97;14.40;;;13.30;24.90;;;;;;10314821;28;20258;-74
2022/03/19 11:03:06;;;;;;;16.23;14.53;;;13.40;25.10;;;;;;10315334;28;20227;-74
2022/03/19 11:08:11;;;;;;;16.07;13.63;;;13.50;23.70;;;;;;10314275;28;20231;-74
2022/03/19 11:13:20;;;;;;;15.57;14.13;;;13.70;24.70;;;;;;10310945;28;20238;-73
2022/03/19 11:18:25;;;;;;;15.70;14.13;;;13.80;23.60;;;;;;10312206;28;20239;-73
2022/03/19 11:23:36;;;;;;;14.70;13.23;;;13.80;23.60;;;;;;10317414;28;20613;-73
2022/03/19 11:28:39;;;;;;;14.93;13.43;;;13.90;23.40;;;;;;10315982;28;20971;-73
2022/03/19 11:33:45;;;;;;;14.77;13.27;;;14.00;23.90;;;;;;10312674;28;20606;-73
2022/03/19 11:38:52;;;;;;;15.47;13.83;;;14.10;23.50;;;;;;10308192;28;20227;-74
2022/03/19 11:44:16;;;;;;;15.43;13.83;;;14.20;23.00;;;;;;10314721;28;20231;-74
2022/03/19 11:49:49;;;;;;;15.00;13.37;;;14.20;21.50;;;;;;10316610;28;20238;-74
2022/03/19 11:55:08;;;;;;;17.33;15.63;;;14.20;21.90;;;;;;10320506;28;20242;-75
2022/03/19 12:00:14;;;;;;;15.43;13.37;;;14.20;21.60;;;;;;10310688;28;20234;-74
2022/03/19 12:05:18;;;;;;;15.43;13.93;;;14.20;23.40;;;;;;10318030;28;20235;-75
2022/03/19 12:10:24;;;;;;;16.47;14.67;;;14.30;22.70;;;;;;10311728;28;20238;-74
2022/03/19 12:15:55;;;;;;;15.40;13.90;;;14.30;23.00;;;;;;10330926;28;20251;-72
2022/03/19 12:21:02;;;;;;;16.00;14.50;;;14.30;21.60;;;;;;10286118;28;20250;-73
2022/03/19 12:26:08;;;;;;;16.57;14.97;;;14.30;22.40;;;;;;10316651;28;20393;-73
2022/03/19 12:31:14;;;;;;;17.40;15.70;;;14.40;22.70;;;;;;10314584;28;20227;-75
2022/03/19 12:36:20;;;;;;;15.03;13.53;;;14.40;22.30;;;;;;10316891;28;20820;-75
2022/03/19 12:41:27;;;;;;;16.23;14.63;;;14.30;22.30;;;;;;10315072;28;20241;-75
2022/03/19 12:47:00;;;;;;;17.13;15.53;;;14.40;22.50;;;;;;10312644;28;20231;-75
2022/03/19 12:52:10;;;;;;;15.97;13.93;;;14.40;21.60;;;;;;10314877;28;20228;-73
2022/03/19 12:57:15;;;;;;;16.53;14.83;;;14.40;21.50;;;;;;10317292;28;20241;-76
2022/03/19 13:02:26;;;;;;;15.97;14.47;;;14.40;22.30;;;;;;10315194;28;20235;-76
2022/03/19 13:07:31;;;;;;;16.00;13.80;;;14.40;22.20;;;;;;10309527;28;20336;-74
2022/03/19 13:12:34;;;;;;;15.27;13.73;;;14.40;21.80;;;;;;10302011;28;20231;-75
2022/03/19 13:17:38;;;;;;;15.93;14.37;;;14.40;22.20;;;;;;10311309;28;20230;-74
2022/03/19 13:22:42;;;;;;;14.63;13.17;;;14.40;21.50;;;;;;10306632;28;20227;-74
2022/03/19 13:27:50;;;;;;;14.53;13.13;;;14.30;21.50;;;;;;10304215;28;20269;-77
2022/03/19 13:32:57;;;;;;;13.83;12.53;;;14.40;21.40;;;;;;10301481;28;20246;-74
2022/03/19 13:38:10;;;;;;;14.73;13.17;;;14.40;20.80;;;;;;10305734;28;20227;-74
2022/03/19 13:43:13;;;;;;;15.63;14.10;;;14.40;20.40;;;;;;10306397;28;20233;-74
2022/03/19 13:48:23;;;;;;;15.33;13.93;;;14.40;21.50;;;;;;10304612;28;20289;-74
2022/03/19 13:53:42;;;;;;;16.00;13.67;;;14.40;20.60;;;;;;10302588;28;20235;-74
2022/03/19 13:58:59;;;;;;;15.30;13.80;;;14.30;20.50;;;;;;10312742;28;20230;-74
2022/03/19 14:04:02;;;;;;;16.07;14.47;;;14.30;20.40;;;;;;10307721;28;20318;-74
2022/03/19 14:09:08;;;;;;;16.43;14.27;;;14.30;21.50;;;;;;10306021;28;20720;-74
2022/03/19 14:14:16;;;;;;;15.77;14.17;;;14.10;21.30;;;;;;10302961;28;20238;-74
2022/03/19 14:19:19;;;;;;;15.37;13.87;;;14.10;21.10;;;;;;10309221;28;20609;-74
2022/03/19 14:24:28;;;;;;;15.40;13.73;;;14.00;21.30;;;;;;10317426;28;20246;-74
2022/03/19 14:29:31;;;;;;;15.30;13.80;;;13.90;21.20;;;;;;10325110;28;20222;-74
2022/03/19 14:34:35;;;;;;;15.53;13.93;;;13.90;21.20;;;;;;10317823;28;20247;-74
2022/03/19 14:39:39;;;;;;;15.53;13.90;;;13.80;21.10;;;;;;10302755;28;20282;-75
2022/03/19 14:44:43;;;;;;;16.00;14.40;;;13.70;21.10;;;;;;10296208;28;20328;-75
2022/03/19 14:49:46;;;;;;;13.97;12.47;;;13.60;21.00;;;;;;10297601;28;20242;-73
2022/03/19 14:54:51;;;;;;;13.70;12.27;;;13.60;21.00;;;;;;10328007;28;20226;-75
2022/03/19 14:59:55;;;;;;;13.00;11.80;;;13.60;21.00;;;;;;10316368;28;20223;-75
2022/03/19 15:04:58;;;;;;;14.17;12.67;;;13.60;21.10;;;;;;10311639;28;20227;-75
2022/03/19 15:10:03;;;;;;;12.60;11.30;;;13.60;21.00;;;;;;10315770;28;20253;-74
2022/03/19 15:15:09;;;;;;;12.03;10.90;;;13.70;21.10;;;;;;10314870;28;20234;-74
2022/03/19 15:20:13;;;;;;;9.77;8.87;;;13.70;21.10;;;;;;10306633;28;20708;-74
2022/03/19 15:25:17;;;;;;;9.67;8.77;;;13.80;20.60;;;;;;10309821;28;20228;-74
2022/03/19 15:30:20;;;;;;;8.87;7.97;;;13.80;19.50;;;;;;10310600;28;20230;-75
2022/03/19 15:35:27;;;;;;;9.13;8.30;;;13.80;20.10;;;;;;10314392;28;20238;-74
2022/03/19 15:40:33;;;;;;;9.63;8.43;;;13.70;19.70;;;;;;10314267;28;20739;-75
2022/03/19 15:45:36;;;;;;;10.63;9.57;;;13.70;19.50;;;;;;10311179;28;20978;-74
2022/03/19 15:50:41;;;;;;;11.07;10.07;;;13.80;19.60;;;;;;10315395;28;20226;-73
2022/03/19 15:55:46;;;;;;;13.03;11.13;;;13.70;19.60;;;;;;10318691;28;20247;-73
2022/03/19 16:00:49;;;;;;;12.87;11.27;;;13.80;19.50;;;;;;10331829;28;20314;-74
2022/03/19 16:05:53;;;;;;;12.83;10.07;;;13.80;19.90;;;;;;10328694;28;20257;-74
2022/03/19 16:10:57;;;;;;;10.97;9.87;;;13.90;19.90;;;;;;10330301;28;20592;-73
2022/03/19 16:16:00;;;;;;;11.37;10.17;;;13.90;19.30;;;;;;10329995;28;20241;-73
2022/03/19 16:21:04;;;;;;;11.07;9.70;;;13.90;19.20;;;;;;10319485;28;20601;-73
2022/03/19 16:26:09;;;;;;;10.70;9.60;;;13.80;19.10;;;;;;10327646;28;20234;-73
2022/03/19 16:31:12;;;;;;;10.87;9.77;;;13.80;18.60;;;;;;10332244;28;20227;-73
2022/03/19 16:36:16;;;;;;;11.80;10.17;;;13.70;19.10;;;;;;10318022;28;20284;-73
2022/03/19 16:41:23;;;;;;;10.73;9.63;;;13.70;19.30;;;;;;10330239;28;20249;-74
2022/03/19 16:46:26;;;;;;;10.93;9.87;;;13.60;18.70;;;;;;10324705;28;20240;-74
2022/03/19 16:51:29;;;;;;;11.47;10.37;;;13.60;19.20;;;;;;10326280;28;20226;-74
2022/03/19 16:56:34;;;;;;;15.10;13.50;;;13.50;19.30;;;;;;10313697;28;20227;-74
2022/03/19 17:01:37;;;;;;;17.27;15.57;;;13.50;19.20;;;;;;10321159;28;20227;-74
2022/03/19 17:06:41;;;;;;;20.70;18.70;;;13.50;19.70;;;;;;10324087;28;20580;-74
2022/03/19 17:11:45;;;;;;;21.83;19.63;;;13.40;19.70;;;;;;10331666;28;20233;-74
2022/03/19 17:16:49;;;;;;;22.57;20.27;;;13.30;19.80;;;;;;10325174;28;20226;-74
2022/03/19 17:21:52;;;;;;;21.90;19.53;;;13.20;20.10;;;;;;10326290;28;20231;-74
2022/03/19 17:26:57;;;;;;;22.00;19.77;;;13.10;20.20;;;;;;10322677;28;20253;-74
2022/03/19 17:32:00;;;;;;;21.53;19.50;;;13.10;20.20;;;;;;10325663;28;20230;-74
2022/03/19 17:37:07;;;;;;;22.00;19.80;;;13.00;20.60;;;;;;10326281;28;20592;-73
2022/03/19 17:42:16;;;;;;;21.63;19.43;;;13.00;20.60;;;;;;10326049;28;20237;-74
2022/03/19 17:47:24;;;;;;;21.83;19.63;;;13.00;20.60;;;;;;10330456;28;20223;-73
2022/03/19 17:52:30;;;;;;;21.83;19.63;;;13.00;20.60;;;;;;10323175;28;20234;-74
2022/03/19 17:57:35;;;;;;;20.57;18.37;;;13.00;20.60;;;;;;10330815;28;21066;-73
2022/03/19 18:02:38;;;;;;;19.20;17.33;;;13.00;20.60;;;;;;10331547;28;20241;-73
2022/03/19 18:07:46;;;;;;;19.50;17.53;;;13.00;20.60;;;;;;10328547;28;20234;-74
2022/03/19 18:12:50;;;;;;;18.87;16.97;;;12.90;20.50;;;;;;10322275;28;20230;-75
2022/03/19 18:17:54;;;;;;;19.00;17.00;;;12.90;20.50;;;;;;10313080;28;20237;-74
2022/03/19 18:22:58;;;;;;;18.27;16.47;;;12.80;20.40;;;;;;10338373;28;20314;-73
2022/03/19 18:28:02;;;;;;;18.07;16.17;;;12.80;20.40;;;;;;10322554;28;20230;-74
2022/03/19 18:33:06;;;;;;;17.43;15.60;;;12.70;20.40;;;;;;10323930;28;20242;-73
2022/03/19 18:38:09;;;;;;;17.33;15.47;;;12.70;20.40;;;;;;10320802;28;20247;-73
2022/03/19 18:43:14;;;;;;;15.57;14.00;;;12.60;20.30;;;;;;10320023;28;20234;-74
2022/03/19 18:48:17;;;;;;;15.50;14.00;;;12.50;20.20;;;;;;10334818;28;20236;-73
2022/03/19 18:53:20;;;;;;;15.50;13.90;;;12.50;20.20;;;;;;10333655;28;20250;-73
2022/03/19 18:58:25;;;;;;;15.20;13.60;;;12.40;20.20;;;;;;10337671;28;20245;-73
2022/03/19 19:03:29;;;;;;;14.57;13.07;;;12.30;20.10;;;;;;10334753;28;20239;-73
2022/03/19 19:08:34;;;;;;;14.50;13.00;;;12.20;20.00;;;;;;10320627;28;20306;-73
2022/03/19 19:13:40;;;;;;;14.13;12.57;;;12.10;20.00;;;;;;10328214;28;20707;-73
2022/03/19 19:18:43;;;;;;;15.27;13.77;;;12.00;19.90;;;;;;10328397;28;20332;-73
2022/03/19 19:23:46;;;;;;;14.90;13.33;;;11.90;19.80;;;;;;10328217;28;20608;-73
2022/03/19 19:28:51;;;;;;;15.03;13.47;;;11.80;19.80;;;;;;10328374;28;20235;-73
2022/03/19 19:33:54;;;;;;;15.40;13.43;;;11.70;19.70;;;;;;10327946;28;20246;-73
2022/03/19 19:38:58;;;;;;;14.77;13.27;;;11.60;19.90;;;;;;10327753;28;20231;-73
2022/03/19 19:44:02;;;;;;;14.97;12.03;;;11.50;19.80;;;;;;10327412;28;20242;-73
2022/03/19 19:49:05;;;;;;;13.97;12.57;;;11.50;19.60;;;;;;10359428;28;20227;-73
2022/03/19 19:54:09;;;;;;;12.83;11.57;;;11.40;19.80;;;;;;10319198;28;20249;-73
2022/03/19 19:59:13;;;;;;;13.97;11.70;;;11.30;19.80;;;;;;10334818;28;20245;-73
2022/03/19 20:04:17;;;;;;;13.33;10.83;;;11.20;19.40;;;;;;10326468;28;20957;-73
2022/03/19 20:09:20;;;;;;;11.90;10.67;;;11.20;19.40;;;;;;10328210;28;20242;-73
2022/03/19 20:14:24;;;;;;;12.43;11.13;;;11.10;19.30;;;;;;10323299;28;20239;-73
2022/03/19 20:19:27;;;;;;;11.13;9.93;;;11.00;19.20;;;;;;10325844;28;20239;-73
2022/03/19 20:24:32;;;;;;;10.97;9.77;;;11.00;19.30;;;;;;10333688;28;20274;-73
2022/03/19 20:29:36;;;;;;;10.93;9.83;;;10.90;19.20;;;;;;10325699;28;20233;-73
2022/03/19 20:34:39;;;;;;;10.77;9.77;;;10.90;19.20;;;;;;10327303;28;20305;-72
2022/03/19 20:39:43;;;;;;;10.63;9.63;;;10.80;19.50;;;;;;10332204;28;20242;-72
2022/03/19 20:44:48;;;;;;;14.73;10.60;;;10.80;19.40;;;;;;10326286;28;20720;-72
2022/03/19 20:55:15;;;;;;;14.03;10.20;;;10.60;19.40;;;;;;10313345;28;20227;-73
2022/03/19 21:00:22;;;;;;;11.80;10.60;;;10.50;19.10;;;;;;10328891;28;20231;-73
2022/03/19 21:05:26;;;;;;;12.77;11.47;;;10.40;19.00;;;;;;10316936;28;20231;-72
2022/03/19 21:10:30;;;;;;;11.93;10.73;;;10.30;19.40;;;;;;10327235;28;20226;-73
2022/03/19 21:15:36;;;;;;;10.73;9.63;;;10.30;19.60;;;;;;10327404;28;20263;-73
2022/03/19 21:20:39;;;;;;;13.23;11.60;;;10.30;19.50;;;;;;10330606;28;20242;-73
2022/03/19 21:25:42;;;;;;;15.37;12.20;;;10.20;19.50;;;;;;10343625;28;20726;-74
2022/03/19 21:30:47;;;;;;;15.57;13.30;;;10.20;19.40;;;;;;10333987;28;20484;-73
2022/03/19 21:35:51;;;;;;;16.43;13.40;;;10.10;19.40;;;;;;10347735;28;20238;-73
2022/03/19 21:40:54;;;;;;;13.83;12.47;;;10.10;19.60;;;;;;10330673;28;20259;-73
2022/03/19 21:46:03;;;;;;;15.03;13.43;;;10.00;19.60;;;;;;10337319;28;20245;-73
2022/03/19 21:51:06;;;;;;;14.90;13.40;;;9.90;20.30;;;;;;10335247;28;20707;-72
2022/03/19 21:56:10;;;;;;;15.13;13.53;;;9.90;20.50;;;;;;10334269;28;20238;-72
2022/03/19 22:01:15;;;;;;;15.90;13.27;;;9.90;20.50;;;;;;10337789;28;20611;-73
2022/03/19 22:06:18;;;;;;;18.23;14.83;;;9.90;20.60;;;;;;10328054;28;20231;-73
2022/03/19 22:11:22;;;;;;;16.57;14.87;;;9.90;20.70;;;;;;10331083;28;20737;-73
2022/03/19 22:16:26;;;;;;;16.40;14.67;;;9.80;20.60;;;;;;10331533;28;20243;-73
2022/03/19 22:21:32;;;;;;;17.80;15.93;;;9.80;20.70;;;;;;10325424;28;20693;-73
2022/03/19 22:26:35;;;;;;;17.67;15.50;;;9.80;20.80;;;;;;10324903;28;20235;-74
2022/03/19 22:31:39;;;;;;;16.70;14.97;;;9.70;20.90;;;;;;10328144;28;20227;-73
2022/03/19 22:36:43;;;;;;;18.63;16.60;;;9.70;20.90;;;;;;10338097;28;20230;-73
2022/03/19 22:41:46;;;;;;;17.07;15.27;;;9.70;20.90;;;;;;10332999;28;20249;-73
2022/03/19 22:46:50;;;;;;;18.10;15.97;;;9.70;21.10;;;;;;10339710;28;20257;-73
2022/03/19 22:51:54;;;;;;;17.53;15.83;;;9.60;21.00;;;;;;10339415;28;20281;-73
2022/03/19 22:56:57;;;;;;;17.70;15.90;;;9.60;21.20;;;;;;10323526;28;20266;-73
2022/03/19 23:02:02;;;;;;;18.80;16.80;;;9.60;21.40;;;;;;10332407;28;20742;-73
2022/03/19 23:07:07;;;;;;;17.97;16.17;;;9.60;21.30;;;;;;10337094;28;20702;-73
2022/03/19 23:12:11;;;;;;;18.43;16.63;;;9.60;21.40;;;;;;10334736;28;20681;-74
2022/03/19 23:17:15;;;;;;;19.43;16.73;;;9.60;21.40;;;;;;10328473;28;20242;-74
2022/03/19 23:22:19;;;;;;;19.80;17.73;;;9.50;21.40;;;;;;10332577;28;20249;-74
2022/03/19 23:27:23;;;;;;;20.10;17.57;;;9.50;21.50;;;;;;10341206;28;20238;-74
2022/03/19 23:32:28;;;;;;;18.77;16.87;;;9.50;21.50;;;;;;10331583;28;20405;-73
2022/03/19 23:37:31;;;;;;;19.70;17.53;;;9.50;21.60;;;;;;10320304;28;20610;-74
2022/03/19 23:42:34;;;;;;;20.87;18.57;;;9.40;21.60;;;;;;10323567;28;20226;-74
2022/03/19 23:47:39;;;;;;;20.30;18.10;;;9.40;21.70;;;;;;10329007;28;20238;-73
2022/03/19 23:52:43;;;;;;;20.00;17.87;;;9.40;21.90;;;;;;10328889;28;20255;-73
2022/03/19 23:57:46;;;;;;;20.27;18.17;;;9.40;21.90;;;;;;10336430;28;20242;-74
